createdAt,value
2023-03-06T00:02:52.151Z,99.96
2023-03-06T00:06:17.799Z,99.52
2023-03-06T00:09:41.249Z,99.40
2023-03-06T00:13:08.117Z,99.56
2023-03-06T00:16:32.129Z,100.00
2023-03-06T00:19:57.622Z,100.00
2023-03-06T00:23:23.648Z,100.00
2023-03-06T00:26:46.815Z,100.00
2023-03-06T00:30:13.563Z,100.00
2023-03-06T00:33:37.594Z,100.00
2023-03-06T00:37:00.816Z,100.00
2023-03-06T00:40:25.927Z,100.00
2023-03-06T00:43:48.781Z,99.67
2023-03-06T00:47:13.074Z,99.42
2023-03-06T00:50:37.402Z,98.83
2023-03-06T00:54:00.837Z,98.98
2023-03-06T00:57:25.123Z,99.09
2023-03-06T01:00:49.224Z,98.42
2023-03-06T01:04:12.684Z,98.02
2023-03-06T01:07:37.791Z,97.67
2023-03-06T01:11:01.978Z,97.45
2023-03-06T01:14:27.191Z,97.93
2023-03-06T01:17:54.143Z,97.60
2023-03-06T01:21:16.896Z,98.45
2023-03-06T01:24:41.264Z,98.56
2023-03-06T01:28:04.876Z,98.80
2023-03-06T01:31:30.735Z,99.14
2023-03-06T01:34:57.267Z,99.86
2023-03-06T01:38:22.144Z,100.00
2023-03-06T01:41:46.129Z,99.94
2023-03-06T01:45:49.437Z,100.00
2023-03-06T01:49:23.872Z,100.00
2023-03-06T01:52:51.744Z,100.00
2023-03-06T01:56:17.878Z,100.00
2023-03-06T01:59:45.853Z,100.00
2023-03-06T02:03:13.324Z,100.00
2023-03-06T02:06:43.250Z,100.00
2023-03-06T02:10:09.172Z,100.00
2023-03-06T02:13:32.988Z,100.00
2023-03-06T02:16:57.897Z,100.00
2023-03-06T02:20:28.807Z,100.00
2023-03-06T02:24:04.977Z,100.00
2023-03-06T02:27:30.805Z,100.00
2023-03-06T02:30:56.994Z,100.00
2023-03-06T02:34:51.058Z,100.00
2023-03-06T02:38:19.826Z,100.00
2023-03-06T02:41:43.091Z,100.00
2023-03-06T02:45:12.074Z,100.00
2023-03-06T02:48:35.971Z,100.00
2023-03-06T02:52:00.154Z,100.00
2023-03-06T02:55:24.038Z,100.00
2023-03-06T02:58:47.103Z,100.00
2023-03-06T03:02:13.027Z,100.00
2023-03-06T03:05:38.764Z,100.00
2023-03-06T03:09:02.223Z,100.00
2023-03-06T03:12:25.804Z,100.00
2023-03-06T03:16:01.081Z,100.00
2023-03-06T03:19:26.092Z,100.00
2023-03-06T03:22:55.478Z,100.00
2023-03-06T03:26:21.910Z,100.00
2023-03-06T03:29:44.869Z,100.00
2023-03-06T03:33:08.649Z,100.00
2023-03-06T03:36:33.969Z,100.00
2023-03-06T03:39:57.117Z,100.00
2023-03-06T03:43:21.122Z,100.00
2023-03-06T03:46:45.245Z,100.00
2023-03-06T03:50:10.725Z,100.00
2023-03-06T03:53:36.244Z,100.00
2023-03-06T03:56:59.912Z,100.00
2023-03-06T04:00:24.126Z,100.00
2023-03-06T04:03:47.779Z,100.00
2023-03-06T04:07:11.968Z,100.00
2023-03-06T04:10:37.694Z,100.00
2023-03-06T04:14:01.378Z,100.00
2023-03-06T04:17:25.356Z,100.00
2023-03-06T04:20:50.794Z,100.00
2023-03-06T04:24:15.070Z,100.00
2023-03-06T04:27:41.200Z,100.00
2023-03-06T04:31:04.544Z,100.00
2023-03-06T04:34:28.763Z,100.00
2023-03-06T04:37:52.178Z,100.00
2023-03-06T04:41:15.165Z,100.00
2023-03-06T04:44:41.021Z,100.00
2023-03-06T04:48:06.068Z,100.00
2023-03-06T04:51:30.169Z,100.00
2023-03-06T04:54:54.430Z,100.00
2023-03-06T04:58:17.976Z,100.00
2023-03-06T05:01:43.093Z,100.00
2023-03-06T05:05:07.885Z,100.00
2023-03-06T05:08:31.061Z,100.00
2023-03-06T05:11:54.114Z,100.00
2023-03-06T05:15:19.325Z,100.00
2023-03-06T05:18:44.946Z,100.00
2023-03-06T05:22:08.727Z,100.00
2023-03-06T05:25:32.717Z,100.00
2023-03-06T05:28:56.810Z,100.00
2023-03-06T05:32:20.833Z,100.00
2023-03-06T05:35:51.036Z,100.00
2023-03-06T05:39:15.496Z,100.00
2023-03-06T05:42:39.497Z,100.00
2023-03-06T05:46:05.150Z,100.00
2023-03-06T05:49:29.818Z,100.00
2023-03-06T05:52:56.187Z,100.00
2023-03-06T05:56:20.448Z,100.00
2023-03-06T05:59:46.337Z,100.00
2023-03-06T06:03:10.707Z,100.00
2023-03-06T06:06:35.158Z,100.00
2023-03-06T06:10:03.537Z,100.00
2023-03-06T06:13:28.964Z,100.00
2023-03-06T06:16:53.355Z,100.00
2023-03-06T06:20:18.512Z,100.00
2023-03-06T06:23:43.084Z,100.00
2023-03-06T06:27:09.308Z,100.00
2023-03-06T06:30:34.315Z,100.00
2023-03-06T06:33:58.090Z,100.00
2023-03-06T06:37:22.210Z,100.00
2023-03-06T06:41:04.244Z,99.76
2023-03-06T06:44:32.551Z,99.82
2023-03-06T06:47:55.657Z,99.58
2023-03-06T06:51:19.106Z,97.91
2023-03-06T06:54:42.273Z,98.15
2023-03-06T06:58:06.271Z,97.61
2023-03-06T07:01:32.109Z,98.04
2023-03-06T07:05:04.064Z,98.58
2023-03-06T07:08:27.113Z,98.68
2023-03-06T07:11:51.296Z,98.80
2023-03-06T07:15:16.292Z,99.03
2023-03-06T07:18:41.938Z,99.03
2023-03-06T07:22:06.022Z,98.85
2023-03-06T07:25:30.312Z,96.96
2023-03-06T07:28:55.278Z,95.76
2023-03-06T07:32:18.936Z,94.32
2023-03-06T07:35:44.032Z,92.90
2023-03-06T07:39:07.791Z,91.90
2023-03-06T07:42:31.154Z,91.36
2023-03-06T07:45:59.441Z,90.33
2023-03-06T07:49:22.917Z,89.83
2023-03-06T07:52:48.327Z,89.63
2023-03-06T07:56:13.333Z,89.71
2023-03-06T07:59:37.437Z,88.72
2023-03-06T08:03:01.293Z,89.00
2023-03-06T08:06:27.055Z,89.44
2023-03-06T08:09:53.066Z,88.67
2023-03-06T08:13:17.146Z,89.02
2023-03-06T08:16:41.227Z,89.61
2023-03-06T08:20:05.323Z,89.19
2023-03-06T08:23:28.363Z,88.80
2023-03-06T08:26:54.312Z,88.89
2023-03-06T08:30:18.498Z,88.32
2023-03-06T08:33:44.019Z,89.44
2023-03-06T08:37:07.103Z,87.12
2023-03-06T08:40:30.961Z,85.96
2023-03-06T08:43:56.173Z,86.57
2023-03-06T08:47:20.259Z,86.73
2023-03-06T08:50:44.859Z,86.67
2023-03-06T08:54:08.344Z,86.50
2023-03-06T08:57:32.388Z,84.11
2023-03-06T09:00:57.377Z,85.43
2023-03-06T09:04:21.625Z,85.49
2023-03-06T09:07:45.401Z,84.45
2023-03-06T09:11:11.395Z,84.11
2023-03-06T09:14:35.303Z,83.27
2023-03-06T09:18:00.226Z,83.50
2023-03-06T09:21:25.643Z,83.81
2023-03-06T09:24:49.409Z,84.89
2023-03-06T09:28:14.625Z,83.18
2023-03-06T09:31:37.994Z,82.06
2023-03-06T09:35:04.421Z,80.48
2023-03-06T09:38:29.655Z,79.44
2023-03-06T09:41:54.377Z,79.40
2023-03-06T09:45:21.195Z,79.96
2023-03-06T09:48:54.293Z,80.52
2023-03-06T09:52:40.192Z,80.81
2023-03-06T09:56:08.404Z,83.49
2023-03-06T09:59:34.200Z,83.58
2023-03-06T10:03:06.642Z,85.16
2023-03-06T10:06:33.331Z,85.88
2023-03-06T10:10:02.537Z,86.67
2023-03-06T10:13:30.205Z,86.32
2023-03-06T10:16:53.369Z,86.60
2023-03-06T10:20:24.320Z,86.61
2023-03-06T10:23:56.303Z,86.83
2023-03-06T10:27:32.168Z,86.76
2023-03-06T10:31:04.531Z,87.41
2023-03-06T10:34:35.072Z,87.55
2023-03-06T10:38:07.476Z,87.95
2023-03-06T10:41:32.666Z,86.59
2023-03-06T10:45:10.280Z,85.47
2023-03-06T10:48:36.519Z,85.16
2023-03-06T10:52:03.297Z,85.60
2023-03-06T10:55:31.651Z,85.48
2023-03-06T10:59:08.516Z,85.43
2023-03-06T11:02:37.324Z,85.40
2023-03-06T11:06:12.667Z,85.95
2023-03-06T11:09:35.646Z,87.87
2023-03-06T11:13:01.257Z,87.89
2023-03-06T11:16:31.021Z,87.45
2023-03-06T11:20:18.994Z,88.15
2023-03-06T11:23:46.910Z,88.62
2023-03-06T11:27:25.228Z,87.30
2023-03-06T11:30:52.275Z,86.94
2023-03-06T11:34:23.529Z,86.81
2023-03-06T11:37:55.392Z,86.76
2023-03-06T11:41:26.538Z,87.02
2023-03-06T11:45:00.352Z,85.15
2023-03-06T11:48:31.114Z,83.67
2023-03-06T11:51:57.536Z,84.03
2023-03-06T11:55:38.013Z,82.43
2023-03-06T11:59:28.730Z,82.50
2023-03-06T12:03:24.566Z,82.22
2023-03-06T12:06:58.565Z,83.95
2023-03-06T12:10:32.404Z,83.39
2023-03-06T12:14:23.720Z,82.40
2023-03-06T12:18:07.674Z,82.78
2023-03-06T12:21:42.718Z,84.59
2023-03-06T12:25:38.340Z,83.51
2023-03-06T12:29:20.679Z,83.47
2023-03-06T12:32:52.769Z,83.55
2023-03-06T12:36:29.923Z,84.08
2023-03-06T12:40:16.749Z,83.31
2023-03-06T12:44:05.106Z,80.50
2023-03-06T12:47:31.440Z,81.84
2023-03-06T12:50:55.611Z,81.29
2023-03-06T12:54:24.322Z,81.13
2023-03-06T12:57:49.330Z,81.15
2023-03-06T13:01:20.622Z,80.94
2023-03-06T13:05:03.312Z,79.46
2023-03-06T13:08:59.139Z,79.42
2023-03-06T13:12:40.641Z,78.56
2023-03-06T13:16:14.561Z,76.28
2023-03-06T13:19:38.536Z,77.50
2023-03-06T13:23:44.607Z,78.00
2023-03-06T13:27:11.622Z,79.93
2023-03-06T13:30:47.572Z,79.87
2023-03-06T13:34:37.833Z,78.24
2023-03-06T13:38:03.339Z,79.27
2023-03-06T13:41:45.659Z,78.42
2023-03-06T13:45:11.896Z,79.01
2023-03-06T13:48:44.774Z,80.87
2023-03-06T13:52:12.559Z,81.44
2023-03-06T13:55:46.580Z,80.77
2023-03-06T13:59:35.134Z,80.51
2023-03-06T14:03:31.894Z,81.38
2023-03-06T14:07:07.250Z,80.81
2023-03-06T14:10:35.824Z,79.94
2023-03-06T14:14:00.225Z,79.91
2023-03-06T14:17:30.459Z,80.47
2023-03-06T14:20:59.456Z,80.30
2023-03-06T14:24:35.527Z,80.73
2023-03-06T14:28:09.128Z,81.31
2023-03-06T14:31:46.035Z,79.83
2023-03-06T14:40:11.404Z,77.21
2023-03-06T14:51:20.510Z,75.54
2023-03-06T14:54:47.318Z,79.05
2023-03-06T14:58:16.524Z,80.31
2023-03-06T15:01:43.554Z,79.72
2023-03-06T15:05:16.026Z,80.98
2023-03-06T15:08:42.718Z,81.07
2023-03-06T15:12:09.662Z,81.07
2023-03-06T15:15:35.599Z,82.36
2023-03-06T15:19:01.325Z,81.62
2023-03-06T15:22:31.744Z,81.97
2023-03-06T15:26:00.751Z,82.30
2023-03-06T15:29:26.176Z,82.85
2023-03-06T15:32:52.608Z,83.74
2023-03-06T15:36:29.905Z,84.17
2023-03-06T15:40:09.656Z,83.27
2023-03-06T15:43:38.359Z,83.82
2023-03-06T15:47:08.680Z,84.33
2023-03-06T15:50:34.636Z,84.07
2023-03-06T15:54:11.994Z,84.36
2023-03-06T15:57:35.606Z,83.83
2023-03-06T16:01:00.837Z,84.03
2023-03-06T16:04:24.996Z,83.96
2023-03-06T16:07:50.939Z,84.54
2023-03-06T16:11:18.600Z,84.95
2023-03-06T16:14:42.473Z,85.08
2023-03-06T16:22:55.648Z,85.55
2023-03-06T16:29:49.848Z,86.31
2023-03-06T16:33:13.631Z,86.25
2023-03-06T16:36:37.611Z,85.60
2023-03-06T16:40:03.113Z,86.20
2023-03-06T16:43:27.216Z,86.30
2023-03-06T16:46:52.746Z,86.96
2023-03-06T16:50:25.642Z,86.78
2023-03-06T16:53:49.517Z,87.59
2023-03-06T16:57:16.368Z,87.09
2023-03-06T17:00:39.744Z,87.26
2023-03-06T17:04:04.838Z,87.86
2023-03-06T17:07:29.750Z,88.32
2023-03-06T17:10:54.261Z,88.56
2023-03-06T17:14:19.564Z,89.41
2023-03-06T17:17:42.726Z,90.43
2023-03-06T17:21:06.508Z,90.80
2023-03-06T17:24:31.001Z,91.22
2023-03-06T17:27:54.864Z,92.16
2023-03-06T17:31:21.750Z,91.78
2023-03-06T17:34:46.028Z,91.84
2023-03-06T17:38:10.521Z,92.72
2023-03-06T17:41:35.094Z,92.32
2023-03-06T17:44:58.874Z,92.50
2023-03-06T17:48:24.895Z,92.47
2023-03-06T17:51:49.218Z,92.34
2023-03-06T17:55:14.021Z,93.37
2023-03-06T17:58:38.007Z,93.13
2023-03-06T18:02:02.224Z,92.98
2023-03-06T18:05:27.885Z,94.04
2023-03-06T18:08:52.940Z,94.28
2023-03-06T18:12:16.714Z,94.60
2023-03-06T18:15:42.126Z,95.14
2023-03-06T18:19:08.922Z,95.34
2023-03-06T18:22:34.505Z,95.39
2023-03-06T18:26:09.938Z,95.91
2023-03-06T18:29:33.421Z,95.76
2023-03-06T18:32:59.192Z,95.75
2023-03-06T18:36:25.377Z,95.77
2023-03-06T18:39:51.414Z,96.21
2023-03-06T18:43:15.503Z,95.81
2023-03-06T18:46:40.612Z,95.62
2023-03-06T18:50:04.599Z,95.47
2023-03-06T18:53:28.372Z,94.80
2023-03-06T18:56:53.072Z,94.37
2023-03-06T19:00:17.776Z,93.94
2023-03-06T19:03:43.642Z,93.84
2023-03-06T19:07:07.688Z,93.26
2023-03-06T19:10:32.086Z,93.45
2023-03-06T19:13:57.299Z,93.29
2023-03-06T19:17:20.955Z,93.13
2023-03-06T19:20:44.959Z,93.29
2023-03-06T19:24:14.685Z,93.36
2023-03-06T19:27:39.968Z,93.70
2023-03-06T19:31:10.336Z,93.82
2023-03-06T19:34:33.802Z,93.31
2023-03-06T19:37:57.791Z,92.48
2023-03-06T19:41:21.786Z,92.85
2023-03-06T19:44:45.757Z,93.73
2023-03-06T19:48:12.812Z,94.38
2023-03-06T19:51:36.892Z,94.80
2023-03-06T19:55:00.161Z,95.28
2023-03-06T19:58:23.640Z,95.15
2023-03-06T20:01:47.577Z,95.88
2023-03-06T20:05:13.142Z,95.69
2023-03-06T20:08:37.004Z,96.09
2023-03-06T20:12:00.191Z,96.06
2023-03-06T20:15:23.958Z,95.65
2023-03-06T20:18:48.142Z,94.99
2023-03-06T20:22:13.870Z,94.73
2023-03-06T20:25:38.671Z,94.14
2023-03-06T20:29:02.255Z,94.00
2023-03-06T20:32:25.940Z,94.09
2023-03-06T20:35:51.029Z,94.13
2023-03-06T20:39:17.983Z,94.20
2023-03-06T20:42:40.941Z,93.92
2023-03-06T20:46:06.717Z,93.40
2023-03-06T20:49:30.759Z,93.83
2023-03-06T20:52:56.176Z,94.11
2023-03-06T20:56:22.208Z,92.84
2023-03-06T20:59:45.781Z,93.53
2023-03-06T21:03:09.356Z,93.54
2023-03-06T21:06:32.832Z,93.07
2023-03-06T21:09:56.710Z,93.44
2023-03-06T21:13:21.716Z,93.18
2023-03-06T21:16:46.082Z,93.34
2023-03-06T21:20:11.058Z,92.58
2023-03-06T21:23:35.206Z,92.69
2023-03-06T21:26:59.294Z,92.30
2023-03-06T21:30:25.089Z,92.20
2023-03-06T21:33:50.237Z,92.16
2023-03-06T21:37:13.607Z,91.70
2023-03-06T21:40:38.076Z,91.15
2023-03-06T21:44:04.238Z,90.88
2023-03-06T21:47:32.081Z,91.14
2023-03-06T21:50:55.886Z,90.52
2023-03-06T21:54:19.087Z,90.49
2023-03-06T21:57:42.087Z,90.31
2023-03-06T22:01:11.022Z,89.40
2023-03-06T22:04:37.039Z,89.24
2023-03-06T22:08:01.846Z,88.86
2023-03-06T22:11:27.400Z,89.07
2023-03-06T22:14:50.326Z,89.25
2023-03-06T22:18:16.467Z,88.06
2023-03-06T22:21:41.876Z,88.08
2023-03-06T22:25:06.715Z,87.85
2023-03-06T22:28:30.252Z,87.47
2023-03-06T22:31:54.182Z,87.97
2023-03-06T22:35:19.111Z,88.10
2023-03-06T22:38:45.994Z,87.54
2023-03-06T22:42:10.285Z,87.38
2023-03-06T22:45:37.563Z,87.01
2023-03-06T22:49:02.049Z,87.18
2023-03-06T22:52:25.713Z,87.00
2023-03-06T22:55:51.643Z,86.87
2023-03-06T22:59:16.855Z,86.18
2023-03-06T23:02:45.553Z,86.77
2023-03-06T23:06:12.111Z,86.61
2023-03-06T23:09:36.285Z,86.02
2023-03-06T23:13:01.918Z,85.85
2023-03-06T23:16:26.153Z,85.82
2023-03-06T23:19:54.386Z,85.73
2023-03-06T23:23:18.266Z,85.89
2023-03-06T23:26:42.349Z,86.01
2023-03-06T23:30:09.519Z,85.79
2023-03-06T23:33:33.083Z,85.60
2023-03-06T23:36:56.762Z,84.95
2023-03-06T23:40:20.949Z,85.25
2023-03-06T23:43:46.983Z,85.30
2023-03-06T23:47:12.179Z,85.98
2023-03-06T23:50:37.817Z,85.29
2023-03-06T23:54:02.419Z,85.88
2023-03-06T23:57:26.025Z,85.19
